Terminal Aerodrome Forecast
Issued by NWS

Home | Current Version | Previous Version | Graphics & Text | Print | Product List | Glossary On
Versions: 1 2 3 4 5 6 7 8 9 10 11 12 13
000
FTUS43 KICT 031720
TAFCNU
TAF
KCNU 031720Z 0318/0418 21010KT P6SM SCT250
     FM040000 16007KT P6SM SCT100 BKN250
     FM041500 22011KT P6SM SCT040 BKN120=

USA.gov is the U.S. government's official web portal to all federal, state and local government web resources and services.